Time;durP1;ratioP1;P1;durP2;ratioP2;P2;SDS_P1;SDS_P2;PMS_P1;PMS_P2;Temp;Humidity;BMP_temperature;BMP_pressure;BME280_temperature;BME280_humidity;BME280_pressure;Samples;Min_cycle;Max_cycle;Signal;HPM_P1;HPM_P2
2023/08/04 00:01:49;;;;;;;4.13;2.00;;;21.20;50.30;;;;;;4986889;28;114566;-77
2023/08/04 00:04:16;;;;;;;7.85;2.90;;;21.20;50.70;;;;;;4969446;28;114343;-79
2023/08/04 00:06:43;;;;;;;5.05;2.22;;;21.20;50.30;;;;;;4987658;28;114111;-78
2023/08/04 00:09:11;;;;;;;5.30;2.40;;;21.20;50.70;;;;;;4986220;28;114812;-78
2023/08/04 00:11:38;;;;;;;5.97;2.58;;;21.30;50.70;;;;;;4969491;28;117193;-78
2023/08/04 00:14:05;;;;;;;4.97;2.33;;;21.30;50.50;;;;;;4987486;28;114369;-79
2023/08/04 00:16:33;;;;;;;6.43;2.58;;;21.30;50.50;;;;;;4987592;28;114331;-78
2023/08/04 00:19:00;;;;;;;5.10;2.38;;;21.40;50.40;;;;;;4985221;28;117630;-79
2023/08/04 00:21:27;;;;;;;6.38;2.58;;;21.30;50.10;;;;;;4985497;28;115813;-78
2023/08/04 00:23:58;;;;;;;6.95;3.50;;;21.30;50.20;;;;;;4985846;28;114160;-78
2023/08/04 00:26:25;;;;;;;7.13;3.33;;;21.40;50.30;;;;;;4969880;28;114169;-79
2023/08/04 00:28:52;;;;;;;5.72;2.42;;;21.40;50.20;;;;;;4985549;28;116376;-78
2023/08/04 00:31:19;;;;;;;5.50;2.95;;;21.40;50.40;;;;;;4984564;28;114729;-78
2023/08/04 00:33:46;;;;;;;5.78;2.67;;;21.40;50.40;;;;;;4986275;28;114357;-78
2023/08/04 00:36:15;;;;;;;4.97;2.60;;;21.40;50.30;;;;;;4987482;28;114216;-79
2023/08/04 00:38:42;;;;;;;6.80;2.60;;;21.40;50.40;;;;;;4986118;28;114381;-79
2023/08/04 00:41:09;;;;;;;6.55;2.50;;;21.50;50.40;;;;;;4968195;28;114779;-79
2023/08/04 00:43:36;;;;;;;6.30;2.88;;;21.50;50.30;;;;;;4985945;28;114214;-79
2023/08/04 00:46:04;;;;;;;6.60;3.00;;;21.50;50.20;;;;;;4986349;28;114166;-78
2023/08/04 00:48:32;;;;;;;7.05;3.10;;;21.50;50.10;;;;;;4985472;28;114812;-77
2023/08/04 00:50:59;;;;;;;6.35;3.05;;;21.60;50.10;;;;;;4984900;28;115961;-78
2023/08/04 00:53:26;;;;;;;6.93;2.75;;;21.60;50.10;;;;;;4985338;28;114304;-79
2023/08/04 00:55:53;;;;;;;6.45;2.90;;;21.50;50.20;;;;;;4985840;28;114074;-79
2023/08/04 00:58:20;;;;;;;7.53;3.40;;;21.60;50.20;;;;;;4986045;28;114821;-78
2023/08/04 01:00:48;;;;;;;6.28;3.22;;;21.60;50.00;;;;;;4984504;28;114521;-79
2023/08/04 01:03:15;;;;;;;6.30;2.95;;;21.60;50.10;;;;;;4985437;28;114449;-79
2023/08/04 01:05:51;;;;;;;8.25;3.10;;;21.60;50.10;;;;;;4986630;28;114041;-79
2023/08/04 01:08:24;;;;;;;9.57;3.58;;;21.60;50.00;;;;;;4984590;28;114956;-78
2023/08/04 01:10:56;;;;;;;7.45;2.92;;;21.40;49.90;;;;;;4986108;28;114540;-79
2023/08/04 01:13:24;;;;;;;5.90;2.78;;;21.30;50.50;;;;;;4988647;28;114194;-79
2023/08/04 01:15:51;;;;;;;6.75;2.78;;;21.30;50.60;;;;;;4988411;28;114549;-78
2023/08/04 01:18:20;;;;;;;5.68;3.05;;;21.30;50.60;;;;;;4984142;28;115372;-78
2023/08/04 01:20:48;;;;;;;5.35;2.50;;;21.30;50.40;;;;;;4985443;28;114119;-78
2023/08/04 01:23:15;;;;;;;6.97;2.83;;;21.30;49.60;;;;;;4986463;28;114260;-78
2023/08/04 01:25:42;;;;;;;4.82;2.30;;;21.20;50.30;;;;;;4988619;28;114504;-78
2023/08/04 01:28:15;;;;;;;4.93;2.50;;;21.00;50.40;;;;;;4989128;28;114888;-78
2023/08/04 01:30:44;;;;;;;6.60;2.60;;;21.00;50.50;;;;;;4985336;28;115855;-78
2023/08/04 01:33:12;;;;;;;6.07;2.40;;;21.00;51.00;;;;;;4985112;28;114336;-79
2023/08/04 01:35:39;;;;;;;4.28;1.98;;;21.10;50.80;;;;;;4968527;28;114312;-78
2023/08/04 01:38:07;;;;;;;3.92;1.85;;;21.10;49.60;;;;;;4968098;28;114994;-78
2023/08/04 01:40:34;;;;;;;3.78;1.75;;;20.90;49.20;;;;;;4967822;28;115941;-78
2023/08/04 01:43:06;;;;;;;5.30;2.38;;;20.70;49.70;;;;;;4984646;28;114397;-78
2023/08/04 01:45:33;;;;;;;4.15;1.73;;;20.40;51.40;;;;;;4990028;28;114299;-78
2023/08/04 01:48:00;;;;;;;3.95;2.00;;;20.30;50.60;;;;;;4987700;28;114309;-78
2023/08/04 01:50:27;;;;;;;4.72;1.70;;;20.30;51.50;;;;;;4987728;28;114885;-78
2023/08/04 01:52:54;;;;;;;5.35;1.65;;;20.30;50.90;;;;;;4973031;28;114233;-78
2023/08/04 01:55:22;;;;;;;4.03;1.75;;;20.20;51.00;;;;;;4989796;28;114093;-78
2023/08/04 01:57:49;;;;;;;5.72;2.22;;;20.20;51.40;;;;;;4988484;28;114811;-78
2023/08/04 02:00:18;;;;;;;4.53;1.80;;;20.00;51.60;;;;;;4971080;28;115970;-78
2023/08/04 02:02:45;;;;;;;3.72;1.85;;;20.00;52.10;;;;;;4989694;28;114144;-78
2023/08/04 02:05:13;;;;;;;4.82;2.30;;;20.00;51.90;;;;;;4989059;28;114346;-78
2023/08/04 02:07:41;;;;;;;3.85;1.80;;;20.00;52.60;;;;;;4971021;28;114190;-78
2023/08/04 02:10:08;;;;;;;5.40;2.30;;;20.10;52.40;;;;;;4988828;28;115021;-78
2023/08/04 02:12:36;;;;;;;4.78;2.00;;;20.20;52.40;;;;;;4989372;28;114681;-78
2023/08/04 02:15:04;;;;;;;5.35;2.20;;;20.30;52.40;;;;;;4989299;28;114588;-79
2023/08/04 02:17:34;;;;;;;5.47;1.90;;;20.40;52.20;;;;;;4987186;28;114812;-79
2023/08/04 02:20:01;;;;;;;3.85;1.70;;;20.50;51.90;;;;;;4987162;28;114657;-79
2023/08/04 02:22:28;;;;;;;4.53;1.92;;;20.50;51.60;;;;;;4988059;28;114150;-78
2023/08/04 02:24:57;;;;;;;3.65;2.00;;;20.60;51.90;;;;;;4988469;28;114420;-79
2023/08/04 02:27:24;;;;;;;4.03;1.70;;;20.50;51.60;;;;;;4987204;28;114967;-78
2023/08/04 02:29:51;;;;;;;4.72;1.80;;;20.60;51.70;;;;;;4971183;28;114569;-78
2023/08/04 02:32:18;;;;;;;4.32;1.67;;;20.60;51.50;;;;;;4988190;28;114145;-78
2023/08/04 02:34:45;;;;;;;3.60;1.65;;;20.50;51.50;;;;;;4971491;28;114363;-78
2023/08/04 02:37:12;;;;;;;3.83;1.77;;;20.20;51.70;;;;;;4986924;28;115166;-79
2023/08/04 02:39:39;;;;;;;4.47;2.25;;;20.00;52.40;;;;;;4985497;28;116086;-78
2023/08/04 02:42:06;;;;;;;4.13;1.75;;;19.70;53.00;;;;;;4986610;28;114685;-78
2023/08/04 02:44:33;;;;;;;4.15;1.90;;;19.60;53.50;;;;;;4986996;28;114225;-78
2023/08/04 02:47:01;;;;;;;3.95;2.03;;;19.40;53.80;;;;;;4985645;28;115252;-78
2023/08/04 02:49:29;;;;;;;5.07;2.17;;;19.30;54.10;;;;;;4987197;28;114618;-79
2023/08/04 02:51:56;;;;;;;4.50;1.98;;;19.30;54.80;;;;;;4987751;28;114480;-78
2023/08/04 02:54:23;;;;;;;4.38;2.25;;;19.40;54.70;;;;;;4985976;28;114642;-78
2023/08/04 02:56:50;;;;;;;3.85;1.88;;;19.60;54.30;;;;;;4968445;28;114885;-78
2023/08/04 02:59:17;;;;;;;3.50;1.60;;;19.70;54.20;;;;;;4986569;28;114879;-79
2023/08/04 03:01:46;;;;;;;4.13;1.75;;;19.80;53.90;;;;;;4987791;28;114265;-79
2023/08/04 03:04:14;;;;;;;4.95;1.70;;;20.00;53.50;;;;;;4986345;28;114446;-79
2023/08/04 03:06:41;;;;;;;4.13;2.00;;;20.00;53.40;;;;;;4985478;28;114875;-78
2023/08/04 03:09:08;;;;;;;5.60;1.80;;;20.20;53.20;;;;;;4986588;28;114658;-78
2023/08/04 03:11:35;;;;;;;3.60;1.60;;;20.30;52.70;;;;;;4987820;28;114122;-79
2023/08/04 03:14:02;;;;;;;3.58;1.67;;;20.30;52.50;;;;;;4987532;28;114242;-79
2023/08/04 03:16:29;;;;;;;5.25;1.83;;;20.30;52.30;;;;;;4985344;28;115103;-78
2023/08/04 03:18:56;;;;;;;5.40;1.63;;;20.30;52.50;;;;;;4984822;28;115950;-79
2023/08/04 03:21:23;;;;;;;5.13;1.70;;;20.30;52.10;;;;;;4987087;28;114346;-79
2023/08/04 03:23:50;;;;;;;4.68;1.67;;;20.10;52.50;;;;;;4985961;28;114236;-78
2023/08/04 03:26:17;;;;;;;3.53;1.80;;;19.90;53.00;;;;;;4985083;28;114901;-78
2023/08/04 03:28:44;;;;;;;4.80;1.58;;;19.80;53.50;;;;;;4984769;28;118299;-79
2023/08/04 03:31:11;;;;;;;4.40;1.70;;;19.90;53.60;;;;;;4985726;28;114445;-79
2023/08/04 03:33:38;;;;;;;3.83;1.77;;;20.10;53.40;;;;;;4985861;28;114391;-78
2023/08/04 03:36:05;;;;;;;5.78;1.90;;;20.20;53.30;;;;;;4942546;28;1234139;-78
2023/08/04 03:38:33;;;;;;;5.88;2.17;;;20.30;53.00;;;;;;4986032;28;114634;-79
2023/08/04 03:41:00;;;;;;;6.03;2.38;;;20.40;52.70;;;;;;4986756;28;114654;-79
2023/08/04 03:43:27;;;;;;;7.95;3.25;;;20.50;52.50;;;;;;4987470;28;114660;-79
2023/08/04 03:45:54;;;;;;;9.52;2.80;;;20.50;52.30;;;;;;4986079;28;115140;-79
2023/08/04 03:48:21;;;;;;;5.93;2.42;;;20.40;52.50;;;;;;4986777;28;116018;-78
2023/08/04 03:50:48;;;;;;;4.85;2.10;;;20.30;52.80;;;;;;4986569;28;114281;-76
2023/08/04 03:53:15;;;;;;;5.15;1.80;;;20.30;53.00;;;;;;4987763;28;114351;-77
2023/08/04 03:55:42;;;;;;;6.68;2.67;;;20.50;52.90;;;;;;4986831;28;115606;-76
2023/08/04 03:58:09;;;;;;;4.93;1.85;;;20.70;52.50;;;;;;4986435;28;114656;-77
2023/08/04 04:00:36;;;;;;;5.82;2.42;;;20.70;52.30;;;;;;4988020;28;114285;-77
2023/08/04 04:03:05;;;;;;;5.28;2.70;;;20.80;52.00;;;;;;4988155;28;114347;-79
2023/08/04 04:05:32;;;;;;;4.75;2.28;;;20.80;51.60;;;;;;4986142;28;114926;-79
2023/08/04 04:07:59;;;;;;;7.25;3.15;;;20.50;51.70;;;;;;4986603;28;114912;-79
2023/08/04 04:10:26;;;;;;;9.98;3.38;;;20.30;52.20;;;;;;4987228;28;114251;-79
2023/08/04 04:12:53;;;;;;;6.78;2.75;;;20.00;52.90;;;;;;4986286;28;114115;-79
2023/08/04 04:15:20;;;;;;;6.22;2.28;;;19.80;53.60;;;;;;4985758;28;114906;-79
2023/08/04 04:17:47;;;;;;;5.13;2.45;;;19.80;54.00;;;;;;4986669;28;114622;-79
2023/08/04 04:20:15;;;;;;;5.28;2.70;;;19.80;54.00;;;;;;4987499;28;114389;-79
2023/08/04 04:22:42;;;;;;;5.68;2.85;;;19.90;53.90;;;;;;4987813;28;114795;-79
2023/08/04 04:25:09;;;;;;;6.15;3.28;;;20.00;53.80;;;;;;4985443;28;115168;-78
2023/08/04 04:27:36;;;;;;;6.05;3.05;;;20.10;53.70;;;;;;4987633;28;114731;-79
2023/08/04 04:30:03;;;;;;;6.28;3.85;;;20.30;53.40;;;;;;4987386;28;114119;-79
2023/08/04 04:32:30;;;;;;;5.10;3.13;;;20.40;53.10;;;;;;4987213;28;114222;-79
2023/08/04 04:34:57;;;;;;;5.75;2.83;;;20.60;52.60;;;;;;4985929;28;116145;-79
2023/08/04 04:37:24;;;;;;;6.32;2.35;;;20.60;52.50;;;;;;4986300;28;114662;-76
2023/08/04 04:39:51;;;;;;;5.32;2.70;;;20.60;52.50;;;;;;4987532;28;114143;-78
2023/08/04 04:42:19;;;;;;;6.20;2.20;;;20.50;52.40;;;;;;4987000;28;114449;-78
2023/08/04 04:44:46;;;;;;;5.13;2.80;;;20.50;52.30;;;;;;4986512;28;114973;-78
2023/08/04 04:47:13;;;;;;;4.82;2.22;;;20.30;52.90;;;;;;4986259;28;114708;-78
2023/08/04 04:49:40;;;;;;;4.80;1.90;;;20.10;53.10;;;;;;4986065;28;114403;-78
2023/08/04 04:52:09;;;;;;;8.10;2.58;;;20.00;53.40;;;;;;4987293;28;114437;-78
2023/08/04 04:54:38;;;;;;;6.07;2.10;;;20.00;53.40;;;;;;4986261;28;114928;-78
2023/08/04 04:57:06;;;;;;;4.70;2.53;;;19.90;53.80;;;;;;4984924;28;114739;-78
2023/08/04 04:59:33;;;;;;;5.53;2.90;;;19.90;53.90;;;;;;4986527;28;114436;-79
2023/08/04 05:02:00;;;;;;;10.88;2.58;;;20.00;53.80;;;;;;4986795;28;114274;-79
2023/08/04 05:04:27;;;;;;;4.45;2.38;;;20.20;53.50;;;;;;4986442;28;114997;-77
2023/08/04 05:06:54;;;;;;;4.65;2.60;;;20.20;53.50;;;;;;4984827;28;117584;-79
2023/08/04 05:09:21;;;;;;;6.30;2.47;;;20.10;53.60;;;;;;4986817;28;114340;-79
2023/08/04 05:11:48;;;;;;;4.22;2.30;;;20.20;53.60;;;;;;4969920;28;114295;-78
2023/08/04 05:14:16;;;;;;;4.05;2.30;;;20.20;53.60;;;;;;4986059;28;115339;-79
2023/08/04 05:16:45;;;;;;;5.15;2.50;;;20.20;53.60;;;;;;4984999;28;117416;-79
2023/08/04 05:19:11;;;;;;;5.20;2.47;;;20.20;53.60;;;;;;4986566;28;114407;-78
2023/08/04 05:21:38;;;;;;;4.95;2.53;;;20.30;53.40;;;;;;4986374;28;114366;-80
2023/08/04 05:24:05;;;;;;;5.25;2.10;;;20.50;53.30;;;;;;4985462;28;114901;-78
2023/08/04 05:26:32;;;;;;;4.28;2.05;;;20.50;53.10;;;;;;4985472;28;116257;-77
2023/08/04 05:28:59;;;;;;;4.57;2.15;;;20.60;53.00;;;;;;4985757;28;114038;-78
2023/08/04 05:31:27;;;;;;;5.05;1.77;;;20.60;52.80;;;;;;4986818;28;114210;-78
2023/08/04 05:33:56;;;;;;;6.40;1.83;;;20.60;52.80;;;;;;4985890;28;115825;-79
2023/08/04 05:36:23;;;;;;;5.03;1.83;;;20.50;53.00;;;;;;4985129;28;114634;-78
2023/08/04 05:38:50;;;;;;;3.92;2.20;;;20.50;53.10;;;;;;4986395;28;114133;-78
2023/08/04 05:41:17;;;;;;;3.83;2.17;;;20.50;53.10;;;;;;4985712;28;114444;-78
2023/08/04 05:43:47;;;;;;;5.70;2.13;;;20.50;53.00;;;;;;4985603;28;115462;-78
2023/08/04 05:46:15;;;;;;;3.95;2.00;;;20.50;53.20;;;;;;4985561;28;114596;-78
2023/08/04 05:48:42;;;;;;;3.45;1.90;;;20.50;53.30;;;;;;4984791;28;114147;-79
2023/08/04 05:51:10;;;;;;;4.63;1.95;;;20.40;53.40;;;;;;4986530;28;114124;-78
2023/08/04 05:53:38;;;;;;;4.78;1.90;;;20.30;53.60;;;;;;4985617;28;115163;-78
2023/08/04 05:56:05;;;;;;;5.43;2.17;;;20.20;53.80;;;;;;4985504;28;114800;-78
2023/08/04 05:58:32;;;;;;;7.63;2.53;;;20.10;54.00;;;;;;4985003;28;114428;-78
2023/08/04 06:00:59;;;;;;;3.40;1.90;;;20.10;54.40;;;;;;4986156;28;114113;-78
2023/08/04 06:03:26;;;;;;;4.47;1.98;;;20.10;54.50;;;;;;4984802;28;114915;-78
2023/08/04 06:05:53;;;;;;;4.20;2.08;;;20.00;54.70;;;;;;4985229;28;114701;-78
2023/08/04 06:08:20;;;;;;;4.05;1.85;;;19.80;54.80;;;;;;4985761;28;114289;-78
2023/08/04 06:10:47;;;;;;;4.15;2.15;;;19.80;55.30;;;;;;4985627;28;114637;-79
2023/08/04 06:13:14;;;;;;;5.40;2.00;;;19.80;55.40;;;;;;4983110;28;114912;-78
2023/08/04 06:15:41;;;;;;;6.32;2.20;;;19.80;55.50;;;;;;4984907;28;114851;-79
2023/08/04 06:18:08;;;;;;;4.50;1.90;;;19.80;55.50;;;;;;4984325;28;114342;-78
2023/08/04 06:20:35;;;;;;;3.55;1.70;;;19.80;55.90;;;;;;4985451;28;114352;-78
2023/08/04 06:23:02;;;;;;;3.28;1.83;;;20.00;55.10;;;;;;4983521;28;114642;-78
2023/08/04 06:25:29;;;;;;;6.03;2.40;;;20.20;55.20;;;;;;4984673;28;114761;-79
2023/08/04 06:27:56;;;;;;;6.57;2.53;;;20.30;55.00;;;;;;4985523;28;114492;-79
2023/08/04 06:30:23;;;;;;;4.15;2.13;;;20.30;55.00;;;;;;4988028;28;114303;-80
2023/08/04 06:32:50;;;;;;;5.10;2.45;;;20.30;54.80;;;;;;4988223;28;115067;-79
2023/08/04 06:35:17;;;;;;;6.13;2.45;;;20.30;54.70;;;;;;4986895;28;115103;-79
2023/08/04 06:37:44;;;;;;;3.60;1.80;;;20.40;54.80;;;;;;4988650;28;114205;-78
2023/08/04 06:40:11;;;;;;;6.10;2.03;;;20.30;54.50;;;;;;4971331;28;114218;-78
2023/08/04 06:42:38;;;;;;;5.93;2.17;;;20.30;54.70;;;;;;4986573;28;116016;-79
2023/08/04 06:45:07;;;;;;;5.97;2.20;;;20.30;55.10;;;;;;4988004;28;114750;-79
2023/08/04 06:47:34;;;;;;;5.07;2.10;;;20.30;54.90;;;;;;4987493;28;114312;-79
2023/08/04 06:50:01;;;;;;;4.28;1.73;;;20.30;54.80;;;;;;4987843;28;114162;-78
2023/08/04 06:52:30;;;;;;;7.15;2.20;;;20.30;54.90;;;;;;4986879;28;114968;-79
2023/08/04 06:54:57;;;;;;;3.72;2.28;;;20.30;54.80;;;;;;4988291;28;114674;-78
2023/08/04 06:57:24;;;;;;;6.50;2.40;;;20.20;55.10;;;;;;4988913;28;114549;-78
2023/08/04 06:59:51;;;;;;;3.88;2.28;;;20.20;55.20;;;;;;4988154;28;114201;-78
2023/08/04 07:02:18;;;;;;;6.10;2.22;;;20.20;55.30;;;;;;4987162;28;114839;-78
2023/08/04 07:04:45;;;;;;;3.83;1.95;;;20.20;55.20;;;;;;4986263;28;118879;-79
2023/08/04 07:07:12;;;;;;;5.30;2.22;;;20.10;55.40;;;;;;4988975;28;114339;-79
2023/08/04 07:09:39;;;;;;;5.97;2.20;;;20.00;55.30;;;;;;4988741;28;114387;-79
2023/08/04 07:12:07;;;;;;;4.97;2.17;;;20.10;55.50;;;;;;4988811;28;114957;-78
2023/08/04 07:14:34;;;;;;;5.03;2.33;;;20.20;55.30;;;;;;4988729;28;114576;-79
2023/08/04 07:17:01;;;;;;;5.50;2.38;;;20.10;55.40;;;;;;4988626;28;114096;-77
2023/08/04 07:19:28;;;;;;;4.88;2.00;;;19.90;55.80;;;;;;4988875;28;114270;-79
2023/08/04 07:21:55;;;;;;;6.00;2.08;;;19.80;56.10;;;;;;4987746;28;116201;-79
2023/08/04 07:24:22;;;;;;;4.28;2.10;;;19.80;56.10;;;;;;4987876;28;114748;-79
2023/08/04 07:26:52;;;;;;;4.70;2.38;;;19.80;56.20;;;;;;4988077;28;114394;-78
2023/08/04 07:29:19;;;;;;;5.43;2.30;;;19.70;56.30;;;;;;4970512;28;114462;-78
2023/08/04 07:31:46;;;;;;;4.47;2.20;;;19.70;56.50;;;;;;4986219;28;116225;-78
2023/08/04 07:34:14;;;;;;;4.43;2.10;;;19.80;55.90;;;;;;4986421;28;115925;-78
2023/08/04 07:36:41;;;;;;;5.22;2.25;;;20.10;55.80;;;;;;4988037;28;114381;-78
2023/08/04 07:39:08;;;;;;;6.05;2.10;;;20.30;55.40;;;;;;4988258;28;114506;-77
2023/08/04 07:41:35;;;;;;;6.65;2.55;;;20.30;55.00;;;;;;4984275;28;117604;-78
2023/08/04 07:44:02;;;;;;;6.00;2.60;;;20.30;54.90;;;;;;4988108;28;114592;-79
2023/08/04 07:46:29;;;;;;;6.18;2.55;;;20.20;55.10;;;;;;4987658;28;114307;-78
2023/08/04 07:48:57;;;;;;;4.30;2.42;;;20.10;55.30;;;;;;4987362;28;114280;-80
2023/08/04 07:51:24;;;;;;;6.43;2.92;;;20.10;55.30;;;;;;4985240;28;115475;-79
2023/08/04 07:53:51;;;;;;;8.40;3.10;;;20.20;55.30;;;;;;4986434;28;115457;-79
2023/08/04 07:56:18;;;;;;;7.82;3.42;;;20.40;55.10;;;;;;4986326;28;114155;-79
2023/08/04 07:58:47;;;;;;;7.32;3.28;;;20.40;55.00;;;;;;4987703;28;114090;-77
2023/08/04 08:01:14;;;;;;;10.05;3.10;;;20.40;55.20;;;;;;4985283;28;115030;-78
2023/08/04 08:03:42;;;;;;;8.73;2.50;;;20.40;55.00;;;;;;4985208;28;115229;-78
2023/08/04 08:06:09;;;;;;;6.85;2.95;;;20.30;54.80;;;;;;4986206;28;114199;-78
2023/08/04 08:08:36;;;;;;;6.80;2.78;;;20.10;55.20;;;;;;4986391;28;114363;-77
2023/08/04 08:11:10;;;;;;;5.93;2.47;;;19.90;55.50;;;;;;4986644;28;114860;-78
2023/08/04 08:13:38;;;;;;;6.03;2.67;;;19.80;55.90;;;;;;4985763;28;114619;-77
2023/08/04 08:16:09;;;;;;;6.38;2.70;;;19.80;56.20;;;;;;4969271;28;114244;-78
2023/08/04 08:18:36;;;;;;;8.65;3.10;;;20.00;55.80;;;;;;4988317;28;114383;-78
2023/08/04 08:21:06;;;;;;;12.73;3.38;;;20.10;56.00;;;;;;4986423;28;114387;-78
2023/08/04 08:23:33;;;;;;;6.70;2.60;;;20.30;55.50;;;;;;4985036;28;115851;-78
2023/08/04 08:26:00;;;;;;;3.95;2.28;;;20.30;55.20;;;;;;4987448;28;114143;-80
2023/08/04 08:28:27;;;;;;;5.70;2.55;;;20.50;54.90;;;;;;4987276;28;114387;-78
2023/08/04 08:30:54;;;;;;;5.68;2.55;;;20.70;54.70;;;;;;4986683;28;115482;-79
2023/08/04 08:33:22;;;;;;;6.35;2.33;;;20.80;53.90;;;;;;4985111;28;114866;-79
2023/08/04 08:35:49;;;;;;;6.93;2.35;;;21.00;54.40;;;;;;4985231;28;114315;-79
2023/08/04 08:38:16;;;;;;;6.40;2.60;;;21.00;54.10;;;;;;4985686;28;114715;-78
2023/08/04 08:40:46;;;;;;;7.15;3.40;;;21.10;54.00;;;;;;4984500;28;115254;-80
2023/08/04 08:43:13;;;;;;;7.60;3.60;;;21.00;53.90;;;;;;4984595;28;115039;-79
2023/08/04 08:45:43;;;;;;;6.53;2.92;;;20.80;54.50;;;;;;4986928;28;114531;-80
2023/08/04 08:48:10;;;;;;;7.03;3.42;;;20.70;54.80;;;;;;4985916;28;114250;-78
2023/08/04 08:50:37;;;;;;;7.97;3.20;;;20.70;55.30;;;;;;4984699;28;114925;-79
2023/08/04 08:53:14;;;;;;;7.20;2.90;;;20.70;55.20;;;;;;4984276;28;114685;-79
2023/08/04 08:55:42;;;;;;;9.15;3.35;;;20.90;54.90;;;;;;4969299;28;114363;-77
2023/08/04 08:58:10;;;;;;;9.18;3.65;;;20.80;54.70;;;;;;4987321;28;114084;-77
2023/08/04 09:00:37;;;;;;;10.27;4.05;;;20.80;55.00;;;;;;4985553;28;115227;-77
2023/08/04 09:03:05;;;;;;;7.38;3.50;;;20.80;54.70;;;;;;4984586;28;114745;-79
2023/08/04 09:05:32;;;;;;;10.40;4.35;;;20.80;54.60;;;;;;4968620;28;114411;-79
2023/08/04 09:08:00;;;;;;;7.63;3.72;;;21.00;54.80;;;;;;4986840;28;114097;-77
2023/08/04 09:10:27;;;;;;;7.38;3.40;;;21.20;54.50;;;;;;4985243;28;116253;-78
2023/08/04 09:12:56;;;;;;;9.27;3.40;;;21.30;53.90;;;;;;4985333;28;116239;-78
2023/08/04 09:15:55;;;;;;;9.18;3.67;;;21.40;53.40;;;;;;4985341;28;114254;-78
2023/08/04 09:18:29;;;;;;;7.53;3.08;;;21.70;53.40;;;;;;4985534;28;114444;-78
2023/08/04 09:20:56;;;;;;;;;;;21.70;52.60;;;;;;4985912;28;114927;-78
2023/08/04 09:23:24;;;;;;;9.32;3.78;;;21.80;53.30;;;;;;4984738;28;114612;-79
2023/08/04 09:25:53;;;;;;;5.93;3.20;;;21.80;53.00;;;;;;4984843;28;114462;-79
2023/08/04 09:28:20;;;;;;;6.07;2.80;;;22.00;52.70;;;;;;4986534;28;114306;-80
2023/08/04 09:31:06;;;;;;;9.57;3.30;;;22.20;52.30;;;;;;4983879;28;114793;-79
2023/08/04 09:33:34;;;;;;;5.78;2.90;;;22.30;52.10;;;;;;4984589;28;114630;-80
2023/08/04 09:36:21;;;;;;;6.10;2.63;;;22.30;52.00;;;;;;4985851;28;114303;-80
2023/08/04 09:38:48;;;;;;;7.32;2.78;;;22.60;51.80;;;;;;4985024;28;114528;-78
2023/08/04 09:41:17;;;;;;;5.80;2.70;;;22.70;51.30;;;;;;4967452;28;114664;-78
2023/08/04 09:43:45;;;;;;;6.82;3.10;;;22.90;51.00;;;;;;4985318;28;115973;-79
2023/08/04 09:46:12;;;;;;;5.30;2.60;;;23.00;50.80;;;;;;4986328;28;114521;-80
2023/08/04 09:48:39;;;;;;;5.65;3.05;;;23.10;50.20;;;;;;4986319;28;114107;-78
2023/08/04 09:51:10;;;;;;;5.03;2.55;;;23.10;50.50;;;;;;4983988;28;114871;-80
2023/08/04 09:53:42;;;;;;;7.22;2.20;;;23.00;50.40;;;;;;4985120;28;114515;-79
2023/08/04 09:56:13;;;;;;;4.78;2.20;;;23.00;50.60;;;;;;4985276;28;114095;-80
2023/08/04 09:58:40;;;;;;;6.38;2.20;;;23.00;50.30;;;;;;4986210;28;114342;-79
2023/08/04 10:01:08;;;;;;;5.65;2.60;;;22.90;50.40;;;;;;4985118;28;114985;-79
2023/08/04 10:03:37;;;;;;;5.63;2.42;;;22.90;50.60;;;;;;4985242;28;115809;-78
2023/08/04 10:06:05;;;;;;;6.32;2.80;;;22.90;50.90;;;;;;4972085;28;114340;-77
2023/08/04 10:08:39;;;;;;;5.75;2.15;;;23.00;50.20;;;;;;4972425;28;114349;-78
2023/08/04 10:11:06;;;;;;;5.15;2.33;;;23.10;51.40;;;;;;4989097;28;114995;-78
2023/08/04 10:13:40;;;;;;;4.88;2.15;;;23.10;50.60;;;;;;4987745;28;114646;-78
2023/08/04 10:16:11;;;;;;;5.07;2.60;;;23.20;50.30;;;;;;4988908;28;114227;-79
2023/08/04 10:18:48;;;;;;;5.93;2.40;;;23.10;49.90;;;;;;4988092;28;114120;-79
2023/08/04 10:21:21;;;;;;;6.82;2.30;;;23.20;49.90;;;;;;4987785;28;114892;-79
2023/08/04 10:23:50;;;;;;;6.33;2.30;;;23.20;49.90;;;;;;4988089;28;114644;-80
2023/08/04 10:26:17;;;;;;;4.45;2.42;;;23.00;50.10;;;;;;4987679;28;114349;-79
2023/08/04 10:29:03;;;;;;;5.65;2.53;;;22.90;50.60;;;;;;4987529;28;114379;-79
2023/08/04 10:31:53;;;;;;;4.32;2.38;;;23.00;49.70;;;;;;4986821;28;114836;-80
2023/08/04 10:34:28;;;;;;;6.97;2.55;;;23.00;50.50;;;;;;4987157;28;114683;-79
2023/08/04 10:36:58;;;;;;;5.85;2.15;;;22.90;51.10;;;;;;4987466;28;114242;-80
2023/08/04 10:39:48;;;;;;;5.60;2.30;;;23.00;50.80;;;;;;4988163;28;114313;-78
2023/08/04 10:42:21;;;;;;;4.95;2.40;;;23.20;50.40;;;;;;4987519;28;114831;-79
2023/08/04 10:44:55;;;;;;;5.88;2.10;;;23.30;50.30;;;;;;4987984;28;114938;-80
2023/08/04 10:47:52;;;;;;;3.95;1.75;;;23.30;50.20;;;;;;4987243;28;114264;-79
2023/08/04 10:50:37;;;;;;;4.05;1.70;;;23.40;49.90;;;;;;4988857;28;114350;-79
2023/08/04 10:53:04;;;;;;;3.40;1.63;;;23.30;49.10;;;;;;4986706;28;114817;-78
2023/08/04 10:55:32;;;;;;;5.78;1.80;;;23.40;48.80;;;;;;4988025;28;114801;-78
2023/08/04 10:58:00;;;;;;;4.50;2.10;;;23.50;48.60;;;;;;4987310;28;114411;-78
2023/08/04 11:00:27;;;;;;;6.43;1.83;;;23.50;48.70;;;;;;4988919;28;114461;-79
2023/08/04 11:02:54;;;;;;;4.70;1.90;;;23.60;48.20;;;;;;4986253;28;114973;-78
2023/08/04 11:05:21;;;;;;;3.55;1.60;;;23.60;47.90;;;;;;4988063;28;115219;-80
2023/08/04 11:07:48;;;;;;;4.25;2.03;;;23.70;47.70;;;;;;4970671;28;114187;-77
2023/08/04 11:10:16;;;;;;;4.32;2.08;;;23.70;48.00;;;;;;4970958;28;114503;-77
2023/08/04 11:12:43;;;;;;;6.18;1.67;;;23.70;48.30;;;;;;4987217;28;114931;-79
2023/08/04 11:15:10;;;;;;;3.60;1.52;;;23.70;48.30;;;;;;4986733;28;117054;-79
2023/08/04 11:17:42;;;;;;;3.15;1.40;;;23.70;48.30;;;;;;4988645;28;114007;-78
2023/08/04 11:20:13;;;;;;;3.67;1.60;;;23.80;48.70;;;;;;4988625;28;114288;-79
2023/08/04 11:22:46;;;;;;;4.03;1.70;;;23.80;48.50;;;;;;4987523;28;114925;-78
2023/08/04 11:25:14;;;;;;;4.53;2.20;;;23.80;48.00;;;;;;4987436;28;114565;-79
2023/08/04 11:27:41;;;;;;;3.83;1.45;;;23.80;48.00;;;;;;4988105;28;114442;-78
2023/08/04 11:30:12;;;;;;;4.15;1.60;;;23.80;48.30;;;;;;4987526;28;114507;-78
2023/08/04 11:32:39;;;;;;;4.93;1.75;;;23.90;48.10;;;;;;4987200;28;114947;-79
2023/08/04 11:35:06;;;;;;;5.10;1.83;;;23.90;47.90;;;;;;4985831;28;115915;-78
2023/08/04 11:37:34;;;;;;;4.20;1.67;;;24.00;47.80;;;;;;4986375;28;114261;-80
2023/08/04 11:40:01;;;;;;;4.03;1.92;;;24.10;47.40;;;;;;4987991;28;114254;-78
2023/08/04 11:42:29;;;;;;;7.22;1.70;;;24.10;47.50;;;;;;4985652;28;114840;-80
2023/08/04 11:44:56;;;;;;;9.15;1.80;;;24.20;47.60;;;;;;4986999;28;114740;-77
2023/08/04 11:47:23;;;;;;;4.82;1.70;;;24.20;47.90;;;;;;4969778;28;114300;-78
2023/08/04 11:49:51;;;;;;;3.45;1.42;;;24.20;47.40;;;;;;4970355;28;114052;-79
2023/08/04 11:52:18;;;;;;;4.75;1.80;;;24.20;47.50;;;;;;4987189;28;115673;-79
2023/08/04 11:54:54;;;;;;;6.05;1.80;;;24.20;47.20;;;;;;4987433;28;114568;-77
2023/08/04 11:57:22;;;;;;;4.07;1.42;;;24.20;47.00;;;;;;4989451;28;114126;-79
2023/08/04 11:59:50;;;;;;;4.55;1.67;;;24.20;47.20;;;;;;4970302;28;114224;-78
2023/08/04 12:02:17;;;;;;;4.10;1.60;;;24.20;47.10;;;;;;4986156;28;114831;-79
2023/08/04 12:04:45;;;;;;;3.53;1.50;;;24.30;47.40;;;;;;4986504;28;116152;-78
2023/08/04 12:07:12;;;;;;;3.45;2.03;;;24.30;46.90;;;;;;4987549;28;114510;-78
2023/08/04 12:09:40;;;;;;;6.47;1.70;;;24.30;46.60;;;;;;4969956;28;114329;-79
2023/08/04 12:12:07;;;;;;;3.88;1.80;;;24.30;46.50;;;;;;4985023;28;114792;-79
2023/08/04 12:14:35;;;;;;;4.03;1.60;;;24.20;46.40;;;;;;4986556;28;114571;-79
2023/08/04 12:17:21;;;;;;;6.65;2.10;;;24.20;47.30;;;;;;4987223;28;114325;-78
2023/08/04 12:19:48;;;;;;;5.65;1.58;;;24.10;47.70;;;;;;5000405;28;114258;-79
2023/08/04 12:22:15;;;;;;;5.97;2.30;;;24.00;47.70;;;;;;4986335;28;115021;-79
2023/08/04 12:24:43;;;;;;;5.97;2.25;;;23.90;48.20;;;;;;4986921;28;114602;-77
2023/08/04 12:27:10;;;;;;;4.65;2.35;;;23.90;48.40;;;;;;4984544;28;115134;-77
2023/08/04 12:29:37;;;;;;;3.30;1.63;;;23.90;48.10;;;;;;4985755;28;114360;-77
2023/08/04 12:32:05;;;;;;;5.70;1.80;;;24.00;47.50;;;;;;4968542;28;114904;-80
2023/08/04 12:34:32;;;;;;;4.10;1.77;;;23.80;47.60;;;;;;4985060;28;114639;-78
2023/08/04 12:36:59;;;;;;;5.55;1.80;;;23.80;47.70;;;;;;4985147;28;114633;-78
2023/08/04 12:39:28;;;;;;;7.20;2.10;;;23.80;48.00;;;;;;4985883;28;114050;-78
2023/08/04 12:41:55;;;;;;;4.28;2.10;;;23.80;48.10;;;;;;4985529;28;114844;-78